Time;durP1;ratioP1;P1;durP2;ratioP2;P2;SDS_P1;SDS_P2;PMS_P1;PMS_P2;Temp;Humidity;BMP_temperature;BMP_pressure;BME280_temperature;BME280_humidity;BME280_pressure;Samples;Min_cycle;Max_cycle;Signal;HPM_P1;HPM_P2
2023/04/20 00:02:01;;;;;;;6.10;3.45;;;;;;;;;;5027112;28;20025;-78
2023/04/20 00:04:46;;;;;;;4.75;3.47;;;;;;;;;;5024624;28;20436;-76
2023/04/20 00:07:42;;;;;;;5.95;3.30;;;;;;;;;;5028902;28;20041;-76
2023/04/20 00:10:27;;;;;;;8.93;3.90;;;;;;;;;;5043395;28;20395;-77
2023/04/20 00:13:13;;;;;;;7.10;3.20;;;;;;;;;;5037884;28;20056;-71
2023/04/20 00:15:58;;;;;;;5.05;2.85;;;;;;;;;;5031162;28;20032;-75
2023/04/20 00:18:46;;;;;;;6.47;3.30;;;;;;;;;;5024261;28;20037;-73
2023/04/20 00:21:32;;;;;;;5.65;3.05;;;;;;;;;;5025959;28;20729;-73
2023/04/20 00:24:17;;;;;;;13.05;3.00;;;;;;;;;;5039267;28;20036;-74
2023/04/20 00:27:02;;;;;;;6.70;3.50;;;;;;;;;;5049047;28;20051;-75
2023/04/20 00:29:48;;;;;;;5.13;2.85;;;;;;;;;;5034877;28;20037;-74
2023/04/20 00:32:33;;;;;;;6.60;3.58;;;;;;;;;;5045873;28;20036;-72
2023/04/20 00:35:18;;;;;;;6.70;2.85;;;;;;;;;;5042477;28;20024;-74
2023/04/20 00:38:03;;;;;;;7.88;3.90;;;;;;;;;;5047301;28;20657;-73
2023/04/20 00:40:52;;;;;;;7.25;2.90;;;;;;;;;;5046997;28;20092;-73
2023/04/20 00:43:37;;;;;;;5.47;2.60;;;;;;;;;;5054638;28;20036;-76
2023/04/20 00:46:22;;;;;;;7.80;2.95;;;;;;;;;;5039530;28;20087;-74
2023/04/20 00:49:08;;;;;;;6.22;3.00;;;;;;;;;;5040986;28;20021;-74
2023/04/20 00:51:53;;;;;;;7.30;3.13;;;;;;;;;;5044131;28;20067;-72
2023/04/20 00:54:39;;;;;;;6.25;3.30;;;;;;;;;;5037189;28;20370;-72
2023/04/20 00:57:25;;;;;;;6.95;2.75;;;;;;;;;;5024611;28;20341;-71
2023/04/20 01:00:10;;;;;;;6.30;3.20;;;;;;;;;;5044486;28;20523;-72
2023/04/20 01:02:56;;;;;;;7.07;3.25;;;;;;;;;;5043229;28;20036;-72
2023/04/20 01:05:41;;;;;;;5.22;2.88;;;;;;;;;;5026928;28;20078;-73
2023/04/20 01:08:27;;;;;;;4.18;2.72;;;;;;;;;;5039006;28;20018;-73
2023/04/20 01:11:12;;;;;;;7.68;3.00;;;;;;;;;;5036828;28;20554;-79
2023/04/20 01:13:57;;;;;;;6.32;2.92;;;;;;;;;;5029030;28;20045;-78
2023/04/20 01:16:43;;;;;;;5.38;3.00;;;;;;;;;;5042303;28;20422;-81
2023/04/20 01:19:29;;;;;;;7.13;2.92;;;;;;;;;;5037212;28;20139;-79
2023/04/20 01:22:18;;;;;;;7.97;2.97;;;;;;;;;;5043914;28;20025;-78
2023/04/20 01:25:06;;;;;;;6.85;3.25;;;;;;;;;;5041012;28;20033;-80
2023/04/20 01:27:52;;;;;;;7.38;3.33;;;;;;;;;;5042835;28;20044;-75
2023/04/20 01:30:37;;;;;;;6.50;2.85;;;;;;;;;;5023089;28;20412;-74
2023/04/20 01:33:22;;;;;;;5.88;3.17;;;;;;;;;;5034414;28;20482;-74
2023/04/20 01:36:08;;;;;;;4.40;2.50;;;;;;;;;;5039973;28;20025;-73
2023/04/20 01:38:53;;;;;;;4.50;3.00;;;;;;;;;;5032826;28;20475;-73
2023/04/20 01:41:39;;;;;;;4.13;2.78;;;;;;;;;;5046042;28;20032;-74
2023/04/20 01:44:24;;;;;;;5.50;3.25;;;;;;;;;;5039226;28;20467;-76
2023/04/20 01:47:09;;;;;;;6.03;2.78;;;;;;;;;;5044869;28;20128;-73
2023/04/20 01:49:55;;;;;;;5.57;2.90;;;;;;;;;;5038671;28;20128;-74
2023/04/20 01:52:43;;;;;;;7.80;3.13;;;;;;;;;;5031083;28;20068;-75
2023/04/20 01:55:28;;;;;;;7.53;3.55;;;;;;;;;;5051225;28;20021;-75
2023/04/20 01:58:14;;;;;;;6.53;3.35;;;;;;;;;;5049540;28;20376;-76
2023/04/20 02:01:00;;;;;;;6.70;3.30;;;;;;;;;;5032807;28;20029;-74
2023/04/20 02:03:47;;;;;;;7.50;4.53;;;;;;;;;;5040565;28;20044;-80
2023/04/20 02:06:33;;;;;;;7.78;2.95;;;;;;;;;;5042252;28;21115;-73
2023/04/20 02:09:18;;;;;;;5.55;2.63;;;;;;;;;;5032081;28;20032;-73
2023/04/20 02:12:03;;;;;;;5.63;3.47;;;;;;;;;;5042536;28;20025;-74
2023/04/20 02:14:49;;;;;;;7.45;2.75;;;;;;;;;;5024532;28;20052;-73
2023/04/20 02:17:35;;;;;;;9.43;2.95;;;;;;;;;;5062553;28;20610;-74
2023/04/20 02:20:21;;;;;;;6.70;3.17;;;;;;;;;;5032395;28;20058;-75
2023/04/20 02:23:06;;;;;;;10.00;3.45;;;;;;;;;;5040468;28;20142;-79
2023/04/20 02:25:51;;;;;;;8.60;3.30;;;;;;;;;;5028727;28;20527;-73
2023/04/20 02:28:37;;;;;;;7.82;3.38;;;;;;;;;;5046414;28;20025;-74
2023/04/20 02:31:22;;;;;;;8.82;3.65;;;;;;;;;;5041913;28;20119;-75
2023/04/20 02:34:08;;;;;;;8.30;3.60;;;;;;;;;;5033136;28;20029;-75
2023/04/20 02:36:53;;;;;;;5.38;3.25;;;;;;;;;;5043049;28;20056;-73
2023/04/20 02:39:38;;;;;;;9.88;3.33;;;;;;;;;;5050161;28;20138;-72
2023/04/20 02:44:54;;;;;;;6.22;3.70;;;;;;;;;;5046946;28;20088;-75
2023/04/20 02:47:40;;;;;;;6.60;3.17;;;;;;;;;;5049511;28;20031;-76
2023/04/20 02:50:25;;;;;;;6.07;2.90;;;;;;;;;;5048877;28;20044;-75
2023/04/20 02:53:10;;;;;;;5.78;2.85;;;;;;;;;;5034677;28;20036;-76
2023/04/20 02:55:56;;;;;;;7.05;3.17;;;;;;;;;;5048112;28;20037;-75
2023/04/20 02:58:41;;;;;;;5.68;3.30;;;;;;;;;;5044471;28;20503;-69
2023/04/20 03:01:26;;;;;;;7.32;3.35;;;;;;;;;;5051151;28;20052;-72
2023/04/20 03:04:11;;;;;;;6.75;3.15;;;;;;;;;;5047760;28;20021;-71
2023/04/20 03:06:57;;;;;;;5.03;3.30;;;;;;;;;;5048995;28;20483;-71
2023/04/20 03:09:42;;;;;;;4.97;2.78;;;;;;;;;;5048333;28;20037;-72
2023/04/20 03:12:28;;;;;;;7.82;2.88;;;;;;;;;;5047950;28;20048;-70
2023/04/20 03:15:14;;;;;;;7.03;3.45;;;;;;;;;;5047755;28;20033;-70
2023/04/20 03:17:59;;;;;;;5.93;3.35;;;;;;;;;;5047635;28;20407;-80
2023/04/20 03:20:44;;;;;;;7.18;3.45;;;;;;;;;;5048610;28;20036;-76
2023/04/20 03:23:30;;;;;;;5.00;2.72;;;;;;;;;;5048453;28;20396;-78
2023/04/20 03:26:16;;;;;;;5.90;3.22;;;;;;;;;;5059194;28;20074;-77
2023/04/20 03:29:01;;;;;;;5.82;3.58;;;;;;;;;;5046336;28;20029;-75
2023/04/20 03:31:47;;;;;;;7.15;3.00;;;;;;;;;;5049250;28;20040;-74
2023/04/20 03:34:32;;;;;;;6.47;3.28;;;;;;;;;;5048405;28;20041;-68
2023/04/20 03:37:17;;;;;;;8.35;4.18;;;;;;;;;;5074702;28;20033;-69
2023/04/20 03:40:03;;;;;;;6.20;3.50;;;;;;;;;;5076544;28;20063;-70
2023/04/20 03:42:48;;;;;;;6.18;3.63;;;;;;;;;;5037126;28;20128;-73
2023/04/20 03:45:33;;;;;;;6.65;3.47;;;;;;;;;;5050374;28;20028;-71
2023/04/20 03:48:18;;;;;;;5.93;3.25;;;;;;;;;;5073507;28;20017;-71
2023/04/20 03:51:04;;;;;;;8.73;3.70;;;;;;;;;;5071948;28;20028;-70
2023/04/20 03:53:49;;;;;;;6.20;3.15;;;;;;;;;;5034236;28;20066;-70
2023/04/20 03:56:34;;;;;;;4.82;2.83;;;;;;;;;;5045023;28;20033;-69
2023/04/20 03:59:19;;;;;;;7.13;3.22;;;;;;;;;;5067771;28;20018;-71
2023/04/20 04:02:05;;;;;;;8.32;4.40;;;;;;;;;;5045112;28;20017;-69
2023/04/20 04:04:50;;;;;;;7.25;3.33;;;;;;;;;;5075874;28;20035;-70
2023/04/20 04:07:35;;;;;;;6.53;3.60;;;;;;;;;;5076844;28;20108;-69
2023/04/20 04:10:21;;;;;;;8.57;3.75;;;;;;;;;;5044861;28;20027;-70
2023/04/20 04:13:06;;;;;;;8.43;4.55;;;;;;;;;;5046034;28;20593;-69
2023/04/20 04:15:51;;;;;;;8.43;4.03;;;;;;;;;;5049728;28;20021;-74
2023/04/20 04:18:37;;;;;;;5.25;3.67;;;;;;;;;;5047179;28;20040;-74
2023/04/20 04:21:22;;;;;;;10.35;4.03;;;;;;;;;;5035957;28;20027;-75
2023/04/20 04:24:08;;;;;;;9.25;3.92;;;;;;;;;;5049813;28;20028;-75
2023/04/20 04:26:57;;;;;;;7.93;3.47;;;;;;;;;;5049236;28;20029;-77
2023/04/20 04:29:43;;;;;;;6.32;3.60;;;;;;;;;;5049884;28;20842;-70
2023/04/20 04:32:29;;;;;;;8.43;4.13;;;;;;;;;;5050216;28;20041;-70
2023/04/20 04:35:14;;;;;;;7.40;4.13;;;;;;;;;;5044391;28;20104;-76
2023/04/20 04:38:00;;;;;;;8.15;4.32;;;;;;;;;;5045375;28;20079;-76
2023/04/20 04:40:45;;;;;;;9.80;4.35;;;;;;;;;;5074299;28;20554;-77
2023/04/20 04:43:30;;;;;;;7.97;4.10;;;;;;;;;;5060323;28;20045;-78
2023/04/20 04:46:16;;;;;;;6.47;3.83;;;;;;;;;;5073450;28;20570;-77
2023/04/20 04:49:01;;;;;;;6.30;3.75;;;;;;;;;;5073106;28;20104;-69
2023/04/20 04:51:46;;;;;;;8.20;4.15;;;;;;;;;;5046689;28;20120;-79
2023/04/20 04:54:33;;;;;;;9.15;4.45;;;;;;;;;;5052074;28;20080;-79
2023/04/20 04:57:18;;;;;;;8.48;4.32;;;;;;;;;;5071981;28;20052;-79
2023/04/20 05:00:08;;;;;;;7.70;4.30;;;;;;;;;;5049478;28;20021;-80
2023/04/20 05:02:54;;;;;;;8.63;4.00;;;;;;;;;;5050095;28;20626;-78
2023/04/20 05:05:39;;;;;;;9.85;4.10;;;;;;;;;;5042871;28;20102;-79
2023/04/20 05:08:24;;;;;;;9.48;4.78;;;;;;;;;;5069930;28;20017;-71
2023/04/20 05:11:09;;;;;;;8.18;4.60;;;;;;;;;;5050093;28;20165;-70
2023/04/20 05:13:55;;;;;;;7.13;4.07;;;;;;;;;;5052924;28;20025;-71
2023/04/20 05:16:40;;;;;;;7.97;4.20;;;;;;;;;;5029257;28;20548;-72
2023/04/20 05:19:25;;;;;;;6.93;4.00;;;;;;;;;;5052249;28;20387;-72
2023/04/20 05:22:10;;;;;;;10.05;4.72;;;;;;;;;;5075867;28;20025;-71
2023/04/20 05:24:56;;;;;;;9.25;4.32;;;;;;;;;;5034323;28;20021;-71
2023/04/20 05:27:41;;;;;;;7.60;4.50;;;;;;;;;;5054242;28;20287;-71
2023/04/20 05:30:26;;;;;;;10.90;5.25;;;;;;;;;;5048409;28;20052;-69
2023/04/20 05:33:12;;;;;;;8.63;5.05;;;;;;;;;;5054663;28;20183;-69
2023/04/20 05:35:57;;;;;;;8.55;4.07;;;;;;;;;;5053788;28;20097;-68
2023/04/20 05:38:42;;;;;;;9.25;4.88;;;;;;;;;;5047887;28;20055;-71
2023/04/20 05:41:27;;;;;;;8.18;4.60;;;;;;;;;;5043570;28;20013;-69
2023/04/20 05:44:13;;;;;;;9.52;4.35;;;;;;;;;;5041183;28;20145;-70
2023/04/20 05:46:58;;;;;;;11.45;4.75;;;;;;;;;;5063572;28;20533;-70
2023/04/20 05:49:44;;;;;;;10.18;4.63;;;;;;;;;;5061548;28;20052;-69
2023/04/20 05:52:30;;;;;;;10.68;4.80;;;;;;;;;;5065437;28;20140;-71
2023/04/20 05:55:15;;;;;;;9.35;4.78;;;;;;;;;;5071318;28;20028;-70
2023/04/20 05:58:00;;;;;;;10.77;5.18;;;;;;;;;;5025467;28;20146;-71
2023/04/20 06:00:46;;;;;;;7.95;4.75;;;;;;;;;;5040700;28;20048;-69
2023/04/20 06:03:32;;;;;;;13.60;4.95;;;;;;;;;;5043273;28;20052;-76
2023/04/20 06:06:17;;;;;;;10.13;5.00;;;;;;;;;;5043440;28;20067;-67
2023/04/20 06:09:03;;;;;;;7.10;4.18;;;;;;;;;;5044547;28;20029;-69
2023/04/20 06:11:49;;;;;;;8.80;4.68;;;;;;;;;;5041699;28;20174;-70
2023/04/20 06:14:34;;;;;;;7.45;3.88;;;;;;;;;;5045658;28;20036;-71
2023/04/20 06:17:19;;;;;;;8.88;3.75;;;;;;;;;;5048146;28;20121;-70
2023/04/20 06:20:08;;;;;;;9.73;4.00;;;;;;;;;;5043277;28;20143;-70
2023/04/20 06:22:53;;;;;;;7.68;4.63;;;;;;;;;;5072908;28;20013;-76
2023/04/20 06:25:39;;;;;;;9.05;4.85;;;;;;;;;;5057827;28;20072;-73
2023/04/20 06:28:24;;;;;;;9.13;4.53;;;;;;;;;;5039237;28;20056;-75
2023/04/20 06:31:10;;;;;;;6.75;4.30;;;;;;;;;;5074897;28;20064;-75
2023/04/20 06:33:55;;;;;;;10.85;4.82;;;;;;;;;;5075202;28;20024;-76
2023/04/20 06:36:42;;;;;;;10.27;4.88;;;;;;;;;;5049484;28;20548;-77
2023/04/20 06:39:27;;;;;;;9.32;5.13;;;;;;;;;;5035060;28;20388;-73
2023/04/20 06:42:13;;;;;;;11.50;5.25;;;;;;;;;;5039387;28;20048;-75
2023/04/20 06:44:58;;;;;;;10.68;5.22;;;;;;;;;;5049614;28;20083;-73
2023/04/20 06:47:43;;;;;;;11.10;5.03;;;;;;;;;;5049773;28;20098;-74
2023/04/20 06:50:28;;;;;;;10.35;4.85;;;;;;;;;;5045407;28;20037;-77
2023/04/20 06:53:14;;;;;;;9.27;5.30;;;;;;;;;;5073865;28;20389;-76
2023/04/20 06:55:59;;;;;;;11.52;5.25;;;;;;;;;;5046089;28;20092;-77
2023/04/20 06:58:44;;;;;;;8.32;5.43;;;;;;;;;;5027027;28;20095;-69
2023/04/20 07:01:30;;;;;;;16.73;7.25;;;;;;;;;;5047527;28;20567;-69
2023/04/20 07:04:15;;;;;;;12.73;5.68;;;;;;;;;;5078439;28;20055;-69
2023/04/20 07:07:00;;;;;;;7.88;5.00;;;;;;;;;;5057595;28;20017;-69
2023/04/20 07:09:45;;;;;;;7.75;4.70;;;;;;;;;;5060079;28;20385;-69
2023/04/20 07:12:31;;;;;;;9.23;5.45;;;;;;;;;;5055371;28;20480;-68
2023/04/20 07:15:16;;;;;;;10.35;5.15;;;;;;;;;;5038554;28;20120;-74
2023/04/20 07:18:01;;;;;;;9.65;5.05;;;;;;;;;;5042161;28;20025;-76
2023/04/20 07:20:46;;;;;;;8.10;4.95;;;;;;;;;;5047931;28;20036;-69
2023/04/20 07:23:32;;;;;;;10.43;5.25;;;;;;;;;;5044801;28;20078;-73
2023/04/20 07:26:17;;;;;;;8.20;5.10;;;;;;;;;;5069145;28;20032;-69
2023/04/20 07:29:03;;;;;;;8.55;5.18;;;;;;;;;;5046800;28;20458;-72
2023/04/20 07:31:48;;;;;;;10.10;5.30;;;;;;;;;;5074690;28;20032;-70
2023/04/20 07:34:33;;;;;;;10.30;5.35;;;;;;;;;;5068526;28;20033;-76
2023/04/20 07:37:18;;;;;;;9.75;5.47;;;;;;;;;;5042024;28;20369;-71
2023/04/20 07:40:07;;;;;;;11.65;6.82;;;;;;;;;;5030063;28;20376;-70
2023/04/20 07:42:52;;;;;;;8.57;5.25;;;;;;;;;;5034486;28;20037;-69
2023/04/20 07:45:40;;;;;;;11.57;5.40;;;;;;;;;;5059993;28;20399;-70
2023/04/20 07:48:25;;;;;;;10.35;5.78;;;;;;;;;;5045500;28;20106;-69
2023/04/20 07:51:11;;;;;;;13.30;5.50;;;;;;;;;;5070389;28;20037;-72
2023/04/20 07:53:56;;;;;;;9.95;5.40;;;;;;;;;;5043423;28;20043;-78
2023/04/20 07:56:41;;;;;;;11.63;5.57;;;;;;;;;;5058811;28;20380;-75
2023/04/20 07:59:27;;;;;;;11.13;5.72;;;;;;;;;;5030492;28;20067;-73
2023/04/20 08:02:12;;;;;;;9.85;6.15;;;;;;;;;;5072973;28;20029;-74
2023/04/20 08:04:57;;;;;;;9.05;5.15;;;;;;;;;;5074036;28;20040;-77
2023/04/20 08:07:43;;;;;;;8.68;5.63;;;;;;;;;;5031395;28;20403;-74
2023/04/20 08:10:28;;;;;;;10.20;6.18;;;;;;;;;;5045475;28;20529;-71
2023/04/20 08:13:13;;;;;;;10.50;5.82;;;;;;;;;;5056463;28;20036;-69
2023/04/20 08:15:58;;;;;;;9.50;5.25;;;;;;;;;;5047218;28;20029;-76
2023/04/20 08:18:44;;;;;;;12.45;7.60;;;;;;;;;;5049569;28;20024;-76
2023/04/20 08:21:30;;;;;;;10.50;5.70;;;;;;;;;;5047877;28;20079;-75
2023/04/20 08:24:15;;;;;;;8.80;5.60;;;;;;;;;;5048268;28;20119;-79
2023/04/20 08:27:01;;;;;;;9.80;5.50;;;;;;;;;;5047611;28;20410;-77
2023/04/20 08:29:46;;;;;;;9.68;5.97;;;;;;;;;;5034462;28;20033;-70
2023/04/20 08:32:31;;;;;;;11.20;6.57;;;;;;;;;;5035630;28;20492;-76
2023/04/20 08:35:19;;;;;;;10.25;5.45;;;;;;;;;;5049484;28;20083;-75
2023/04/20 08:38:07;;;;;;;10.55;5.70;;;;;;;;;;5046931;28;20052;-76
2023/04/20 08:40:52;;;;;;;10.80;5.38;;;;;;;;;;5072025;28;20031;-76
2023/04/20 08:43:38;;;;;;;11.35;5.68;;;;;;;;;;5073893;28;20047;-75
2023/04/20 08:46:30;;;;;;;10.27;5.68;;;;;;;;;;5051539;28;20511;-77
2023/04/20 08:49:18;;;;;;;11.43;5.75;;;;;;;;;;5045874;28;20021;-68
2023/04/20 08:52:04;;;;;;;18.75;7.43;;;;;;;;;;5058748;23;20065;-77
2023/04/20 08:54:49;;;;;;;10.18;5.80;;;;;;;;;;5028838;28;20211;-75
2023/04/20 08:57:35;;;;;;;9.77;5.78;;;;;;;;;;5028912;28;20029;-75
2023/04/20 09:00:20;;;;;;;9.75;5.80;;;;;;;;;;5021864;28;20029;-76
2023/04/20 09:03:05;;;;;;;8.88;5.38;;;;;;;;;;5012674;28;20033;-73
2023/04/20 09:05:50;;;;;;;8.48;5.57;;;;;;;;;;5019779;28;20389;-72
2023/04/20 09:08:37;;;;;;;9.75;5.63;;;;;;;;;;5026040;28;20040;-76
2023/04/20 09:11:26;;;;;;;11.45;5.50;;;;;;;;;;5024204;28;20760;-73
2023/04/20 09:14:13;;;;;;;9.13;5.90;;;;;;;;;;5012223;28;20524;-73
2023/04/20 09:17:03;;;;;;;11.65;6.50;;;;;;;;;;5024546;28;20033;-72
2023/04/20 09:19:51;;;;;;;11.23;5.25;;;;;;;;;;5027519;28;20520;-71
2023/04/20 09:22:37;;;;;;;8.68;5.63;;;;;;;;;;5027084;28;20104;-72
2023/04/20 09:25:25;;;;;;;12.40;5.88;;;;;;;;;;5018966;28;20133;-73
2023/04/20 09:28:12;;;;;;;11.18;5.78;;;;;;;;;;5013597;28;20053;-75
2023/04/20 09:30:57;;;;;;;9.55;5.35;;;;;;;;;;5012974;28;20497;-73
2023/04/20 09:33:42;;;;;;;10.73;5.72;;;;;;;;;;5023093;28;20578;-75
2023/04/20 09:36:54;;;;;;;12.85;6.28;;;;;;;;;;5006318;28;20117;-74
2023/04/20 09:39:41;;;;;;;10.23;6.30;;;;;;;;;;5017846;28;20029;-72
2023/04/20 09:42:27;;;;;;;11.43;5.65;;;;;;;;;;5010419;28;20029;-73
2023/04/20 09:45:13;;;;;;;9.95;5.82;;;;;;;;;;5022731;28;21751;-81
2023/04/20 09:47:59;;;;;;;9.68;5.63;;;;;;;;;;5022900;28;20057;-71
2023/04/20 09:50:45;;;;;;;14.23;6.20;;;;;;;;;;5022877;28;20064;-73
2023/04/20 09:53:30;;;;;;;11.60;5.35;;;;;;;;;;5008970;28;20017;-71
2023/04/20 09:56:15;;;;;;;18.70;6.75;;;;;;;;;;5027984;28;20056;-74
2023/04/20 09:59:02;;;;;;;10.57;6.10;;;;;;;;;;5022933;28;20036;-72
2023/04/20 10:01:47;;;;;;;9.00;5.28;;;;;;;;;;5022829;28;20025;-85
2023/04/20 10:04:32;;;;;;;10.25;6.00;;;;;;;;;;5017279;28;20037;-75
2023/04/20 10:07:27;;;;;;;11.80;5.85;;;;;;;;;;5012982;28;20392;-76
2023/04/20 10:10:14;;;;;;;10.27;5.90;;;;;;;;;;5026402;28;20025;-74
2023/04/20 10:13:00;;;;;;;9.63;5.88;;;;;;;;;;5022358;28;20113;-75
2023/04/20 10:15:45;;;;;;;10.25;5.75;;;;;;;;;;5017133;28;20373;-76
2023/04/20 10:18:30;;;;;;;9.07;5.45;;;;;;;;;;5028180;28;20029;-77
2023/04/20 10:21:15;;;;;;;10.75;6.28;;;;;;;;;;5033856;28;20015;-71
2023/04/20 10:24:02;;;;;;;13.70;6.63;;;;;;;;;;5031142;28;20032;-73
2023/04/20 10:26:47;;;;;;;9.75;5.60;;;;;;;;;;5016329;28;20021;-73
2023/04/20 10:29:34;;;;;;;11.98;7.00;;;;;;;;;;5029271;28;20029;-71
2023/04/20 10:32:20;;;;;;;10.65;6.53;;;;;;;;;;5030614;28;20111;-72
2023/04/20 10:35:07;;;;;;;9.57;5.28;;;;;;;;;;5022834;28;20033;-75
2023/04/20 10:37:52;;;;;;;9.32;6.40;;;;;;;;;;5029314;28;20036;-72
2023/04/20 10:40:38;;;;;;;10.73;6.03;;;;;;;;;;5030433;28;20025;-73
2023/04/20 10:43:23;;;;;;;8.52;5.00;;;;;;;;;;5014530;28;20031;-71
2023/04/20 10:46:21;;;;;;;10.23;5.60;;;;;;;;;;5024950;28;20455;-72
2023/04/20 10:49:07;;;;;;;10.45;6.10;;;;;;;;;;5029959;28;20492;-73
2023/04/20 10:51:53;;;;;;;8.20;5.60;;;;;;;;;;5030504;28;20049;-71
2023/04/20 10:54:39;;;;;;;8.70;5.40;;;;;;;;;;5025277;28;20096;-72
2023/04/20 10:57:24;;;;;;;10.45;5.35;;;;;;;;;;5027165;28;20026;-76
2023/04/20 11:00:16;;;;;;;11.02;6.60;;;;;;;;;;5028206;28;20029;-76
2023/04/20 11:03:01;;;;;;;8.80;5.28;;;;;;;;;;5023724;28;20033;-76
2023/04/20 11:05:48;;;;;;;8.15;4.93;;;;;;;;;;5024552;28;20060;-77
2023/04/20 11:08:34;;;;;;;8.35;5.32;;;;;;;;;;5025817;28;20026;-79
2023/04/20 11:11:20;;;;;;;7.85;4.72;;;;;;;;;;5028043;28;20034;-76
2023/04/20 11:14:09;;;;;;;7.93;4.07;;;;;;;;;;5011874;28;20113;-74
2023/04/20 11:16:54;;;;;;;7.70;4.75;;;;;;;;;;5026476;28;20496;-82
2023/04/20 11:19:40;;;;;;;6.25;4.05;;;;;;;;;;5011451;28;20528;-76
2023/04/20 11:22:25;;;;;;;9.63;5.15;;;;;;;;;;5029061;28;20098;-75
2023/04/20 11:25:11;;;;;;;12.30;5.00;;;;;;;;;;5028349;28;20076;-77
2023/04/20 11:28:07;;;;;;;6.65;4.60;;;;;;;;;;5010920;28;20168;-76
2023/04/20 11:30:53;;;;;;;8.02;4.10;;;;;;;;;;5008235;28;20060;-78
2023/04/20 11:33:38;;;;;;;7.93;4.90;;;;;;;;;;5008196;28;20025;-72
2023/04/20 11:36:24;;;;;;;9.43;5.25;;;;;;;;;;5025852;28;20417;-71
2023/04/20 11:39:11;;;;;;;8.40;5.05;;;;;;;;;;5028056;28;20033;-73
2023/04/20 11:41:57;;;;;;;6.20;4.00;;;;;;;;;;5013647;28;20532;-73
2023/04/20 11:44:42;;;;;;;8.70;5.55;;;;;;;;;;5024101;28;20084;-72
2023/04/20 11:47:27;;;;;;;9.10;4.93;;;;;;;;;;5023348;28;20052;-74
2023/04/20 11:50:13;;;;;;;9.07;5.82;;;;;;;;;;5026613;28;20031;-71
2023/04/20 11:52:58;;;;;;;9.50;6.75;;;;;;;;;;5011735;28;20037;-76
2023/04/20 11:55:43;;;;;;;9.15;5.47;;;;;;;;;;5025966;28;20128;-72
2023/04/20 11:58:29;;;;;;;8.35;5.50;;;;;;;;;;5023068;28;20026;-72
2023/04/20 12:01:15;;;;;;;11.77;6.63;;;;;;;;;;5024752;28;20024;-72
2023/04/20 12:04:01;;;;;;;9.88;6.18;;;;;;;;;;5010833;28;20542;-72
2023/04/20 12:06:46;;;;;;;8.75;5.72;;;;;;;;;;5026551;28;20041;-72
2023/04/20 12:09:36;;;;;;;10.57;6.13;;;;;;;;;;5025706;28;20037;-72
2023/04/20 12:12:22;;;;;;;10.82;6.25;;;;;;;;;;5024495;28;20037;-83
2023/04/20 12:15:07;;;;;;;10.32;5.78;;;;;;;;;;5012195;28;20033;-73
2023/04/20 12:17:53;;;;;;;8.57;5.63;;;;;;;;;;5028648;28;20080;-72
2023/04/20 12:20:38;;;;;;;9.60;6.45;;;;;;;;;;5010083;28;20033;-73
2023/04/20 12:23:23;;;;;;;12.80;6.30;;;;;;;;;;5026967;28;20559;-74
2023/04/20 12:26:09;;;;;;;9.63;6.45;;;;;;;;;;5021181;28;20041;-73
2023/04/20 12:28:54;;;;;;;9.43;6.07;;;;;;;;;;5027027;28;20025;-70
2023/04/20 12:31:39;;;;;;;13.65;6.85;;;;;;;;;;5002912;28;20112;-73
2023/04/20 12:34:25;;;;;;;11.68;7.78;;;;;;;;;;5010365;28;20033;-73
2023/04/20 12:37:10;;;;;;;10.00;6.53;;;;;;;;;;5009421;28;20033;-75
2023/04/20 12:39:56;;;;;;;10.75;6.10;;;;;;;;;;5011094;28;20025;-71
2023/04/20 12:42:41;;;;;;;10.82;6.53;;;;;;;;;;5025581;28;20092;-72
2023/04/20 12:45:27;;;;;;;10.10;6.70;;;;;;;;;;5024064;28;20073;-73
2023/04/20 12:48:13;;;;;;;8.90;5.75;;;;;;;;;;5025123;28;20034;-83
2023/04/20 12:50:58;;;;;;;9.43;6.18;;;;;;;;;;5022613;28;20068;-73
2023/04/20 12:53:43;;;;;;;9.05;5.47;;;;;;;;;;5011332;28;20021;-73
2023/04/20 12:56:28;;;;;;;10.75;6.65;;;;;;;;;;5018075;28;20033;-73
2023/04/20 12:59:14;;;;;;;9.20;5.97;;;;;;;;;;5008327;28;20058;-72
2023/04/20 13:01:59;;;;;;;8.57;5.65;;;;;;;;;;5007155;28;20021;-72
2023/04/20 13:04:45;;;;;;;9.70;6.38;;;;;;;;;;5019821;28;20434;-82
2023/04/20 13:07:30;;;;;;;10.70;5.93;;;;;;;;;;5022297;28;20014;-76
2023/04/20 13:10:16;;;;;;;8.10;5.03;;;;;;;;;;5024379;28;20025;-81
2023/04/20 13:13:01;;;;;;;11.32;5.72;;;;;;;;;;5014497;28;20071;-79
2023/04/20 13:15:46;;;;;;;10.57;5.45;;;;;;;;;;5012236;28;20024;-78
2023/04/20 13:18:32;;;;;;;8.57;5.35;;;;;;;;;;5025616;28;20028;-79
2023/04/20 13:21:17;;;;;;;10.02;6.03;;;;;;;;;;5022981;28;20111;-77
2023/04/20 13:24:03;;;;;;;8.13;4.88;;;;;;;;;;5010985;28;20195;-73
2023/04/20 13:26:49;;;;;;;8.75;4.43;;;;;;;;;;5010551;28;20029;-82
2023/04/20 13:29:35;;;;;;;8.32;4.95;;;;;;;;;;5027219;28;20025;-84
2023/04/20 13:32:20;;;;;;;7.60;5.13;;;;;;;;;;5027126;28;20481;-83
2023/04/20 13:35:06;;;;;;;9.88;5.38;;;;;;;;;;5023481;28;20416;-81
2023/04/20 13:37:51;;;;;;;8.68;5.32;;;;;;;;;;5011687;28;20030;-82
2023/04/20 13:40:36;;;;;;;9.38;5.07;;;;;;;;;;5009394;28;20480;-81
2023/04/20 13:43:21;;;;;;;9.25;4.75;;;;;;;;;;5014765;28;20048;-81
2023/04/20 13:46:07;;;;;;;7.68;4.88;;;;;;;;;;5025982;28;20037;-79
2023/04/20 13:48:52;;;;;;;8.13;5.10;;;;;;;;;;5029377;28;20033;-79
2023/04/20 13:51:38;;;;;;;10.20;5.50;;;;;;;;;;5042607;28;20137;-78
2023/04/20 13:54:23;;;;;;;8.52;5.20;;;;;;;;;;5031744;28;20025;-78
2023/04/20 13:57:08;;;;;;;7.10;4.45;;;;;;;;;;5009219;28;20083;-78
2023/04/20 13:59:53;;;;;;;8.75;5.13;;;;;;;;;;5019122;28;20013;-72
2023/04/20 14:02:39;;;;;;;9.13;4.70;;;;;;;;;;5028896;28;20028;-78
2023/04/20 14:05:24;;;;;;;9.10;4.75;;;;;;;;;;5028933;28;20132;-72
2023/04/20 14:08:09;;;;;;;9.10;5.20;;;;;;;;;;5025126;28;20025;-74
2023/04/20 14:10:55;;;;;;;7.93;4.75;;;;;;;;;;5029444;28;20033;-72
2023/04/20 14:13:40;;;;;;;9.35;4.32;;;;;;;;;;5010308;28;20461;-72
2023/04/20 14:16:25;;;;;;;7.60;4.85;;;;;;;;;;5027975;28;20120;-72
2023/04/20 14:19:10;;;;;;;10.48;4.95;;;;;;;;;;5029208;28;20083;-75
2023/04/20 14:21:56;;;;;;;9.18;4.78;;;;;;;;;;5012782;28;20037;-77
2023/04/20 14:24:41;;;;;;;8.07;4.75;;;;;;;;;;5013228;28;20018;-79
2023/04/20 14:27:26;;;;;;;5.82;4.45;;;;;;;;;;5031662;28;20030;-79
2023/04/20 14:30:12;;;;;;;7.03;4.72;;;;;;;;;;5029595;28;20109;-78
2023/04/20 14:32:58;;;;;;;6.38;4.15;;;;;;;;;;5009196;28;20526;-79
2023/04/20 14:35:45;;;;;;;8.45;5.22;;;;;;;;;;5025448;28;20021;-78
2023/04/20 14:38:30;;;;;;;7.32;4.68;;;;;;;;;;5027647;28;20116;-82
2023/04/20 14:41:15;;;;;;;8.13;5.00;;;;;;;;;;5024186;28;20387;-74
2023/04/20 14:44:01;;;;;;;7.55;4.47;;;;;;;;;;5008663;28;20128;-74
2023/04/20 14:46:46;;;;;;;8.90;4.90;;;;;;;;;;5023686;28;20472;-72
2023/04/20 14:49:31;;;;;;;7.35;4.47;;;;;;;;;;5023309;28;20480;-72
2023/04/20 14:52:16;;;;;;;7.15;4.55;;;;;;;;;;5022532;28;20049;-71
2023/04/20 14:55:02;;;;;;;9.73;5.13;;;;;;;;;;5011613;28;20013;-73
2023/04/20 14:57:49;;;;;;;8.13;5.25;;;;;;;;;;5023907;28;20029;-84
2023/04/20 15:00:35;;;;;;;8.98;5.93;;;;;;;;;;5026632;28;20026;-80
2023/04/20 15:03:20;;;;;;;9.65;5.30;;;;;;;;;;5024595;28;20079;-80
2023/04/20 15:06:05;;;;;;;9.98;5.78;;;;;;;;;;5028337;28;20192;-80
2023/04/20 15:08:55;;;;;;;8.18;4.88;;;;;;;;;;5016863;28;20465;-80
2023/04/20 15:11:40;;;;;;;8.07;5.65;;;;;;;;;;5029617;28;20079;-82
2023/04/20 15:14:25;;;;;;;8.20;5.22;;;;;;;;;;5017703;28;20033;-73
2023/04/20 15:17:12;;;;;;;10.00;5.97;;;;;;;;;;5025603;28;20488;-76
2023/04/20 15:19:57;;;;;;;8.95;5.65;;;;;;;;;;5016785;28;20013;-74
2023/04/20 15:22:43;;;;;;;7.70;5.57;;;;;;;;;;5031931;28;20405;-76
2023/04/20 15:25:28;;;;;;;9.32;5.68;;;;;;;;;;5028136;28;20026;-75
2023/04/20 15:28:13;;;;;;;8.65;6.15;;;;;;;;;;5024658;28;20033;-76
2023/04/20 15:30:58;;;;;;;8.18;5.28;;;;;;;;;;5027934;28;20064;-76
2023/04/20 15:33:46;;;;;;;7.78;5.32;;;;;;;;;;5030394;28;20022;-80
2023/04/20 15:36:31;;;;;;;8.15;5.68;;;;;;;;;;5030558;28;20060;-74
2023/04/20 15:39:17;;;;;;;8.13;5.85;;;;;;;;;;5025959;28;20048;-72
2023/04/20 15:42:02;;;;;;;8.32;5.85;;;;;;;;;;5021005;28;20034;-71
2023/04/20 15:44:47;;;;;;;9.80;5.35;;;;;;;;;;5028461;28;20021;-73
2023/04/20 15:47:32;;;;;;;8.80;5.47;;;;;;;;;;5028917;28;20025;-72
2023/04/20 15:50:18;;;;;;;10.23;6.55;;;;;;;;;;5020352;28;20087;-71
2023/04/20 15:53:03;;;;;;;10.77;5.75;;;;;;;;;;5029424;28;20053;-71
2023/04/20 15:55:48;;;;;;;10.52;5.80;;;;;;;;;;5016445;28;20235;-74
2023/04/20 15:58:34;;;;;;;10.18;6.30;;;;;;;;;;5030417;28;20083;-74
2023/04/20 16:01:19;;;;;;;10.23;7.28;;;;;;;;;;5028835;28;20119;-74
2023/04/20 16:04:04;;;;;;;9.85;6.65;;;;;;;;;;5029873;28;20499;-75
2023/04/20 16:06:50;;;;;;;12.18;6.93;;;;;;;;;;5030308;28;20022;-75
2023/04/20 16:09:35;;;;;;;8.90;5.97;;;;;;;;;;5028895;28;20071;-76
2023/04/20 16:12:21;;;;;;;11.65;7.13;;;;;;;;;;5028776;28;20509;-72
2023/04/20 16:15:06;;;;;;;10.40;7.13;;;;;;;;;;5015802;28;20116;-71
2023/04/20 16:17:52;;;;;;;9.00;6.20;;;;;;;;;;5028048;28;20032;-72
2023/04/20 16:20:37;;;;;;;9.30;6.53;;;;;;;;;;5030056;28;20396;-72
2023/04/20 16:23:23;;;;;;;8.98;6.13;;;;;;;;;;5016257;28;20029;-72
2023/04/20 16:26:08;;;;;;;11.27;8.13;;;;;;;;;;5029831;28;20041;-71
2023/04/20 16:28:53;;;;;;;12.25;6.32;;;;;;;;;;5015492;28;20108;-77
2023/04/20 16:31:39;;;;;;;8.48;6.03;;;;;;;;;;5027190;28;20508;-77